Augsburg, Illinois
Current Conditions -  °F | °C
As of 6:55 AM on Saturday 25 Oct 2014 (Local Time) from KSLO Reporting Station
Clear Clear  
Wind Chill: 56°   Ceiling: Unl
Heat Index: 56°   Visibility: 7mi
Dew Point: 55°   Wind: 3mph
Humidity: 97%   Direction: 260°W
Pressure: 30.02"   Gusts: NA
Location:  38.8463°N, 89.0894°W
Report Text: KSLO 251155Z AUTO 26003KT 7SM CLR 14/13 A3002 RMK AO2 T01350130 10158 20130
Loading
Personal Weather Stations






























Interactive Weather Map
Tropical Storm Tracking
New forecast layout! Learn more

10-Day Weather Forecast

Advertisements
Track Severe Weather on mobile